AirNav   Air Wisconsin Up To $57,000 Bonus
 
 580 users online  

DE20 Spirit Airpark
Townsend, Delaware, USA

GOING TO TOWNSEND?


FAA INFORMATION EFFECTIVE 22 APRIL 2021

Location

FAA Identifier: DE20
Lat/Long: 39-22-25.0000N 075-44-45.0000W
39-22.416667N 075-44.750000W
39.3736111,-75.7458333
(estimated)
Elevation: 80 ft. / 24 m (estimated)
Variation: 11W (1995)
From city: 4 miles N of TOWNSEND, DE
Time zone: UTC -4 (UTC -5 during Standard Time)
Zip code: 19734

Airport Operations

Airport use: Private use. Permission required prior to landing
Activation date: 06/1999
Control tower: no
ARTCC: NEW YORK CENTER
FSS: MILLVILLE FLIGHT SERVICE STATION
Attendance: DAYLIGHT HOURS
Segmented circle: no

Airport Communications

WX AWOS-3 at EVY (9 nm N): 132.325 (302-378-2063)
WX AWOS-3 at 33N (11 nm SE): 120.125 (302-735-9754)
WX ASOS at ILG (19 nm N): 123.95 (302-328-1536)

Nearby radio navigation aids

VOR radial/distance  VOR name  Freq  Var
ENOr318/13.7SMYRNA VORTAC111.4009W
DQOr209/19.4DUPONT VORTAC114.0010W
OODr242/25.8WOODSTOWN VORTAC112.8010W
MXEr195/32.8MODENA VORTAC113.2009W
VCNr265/37.4CEDAR LAKE VOR/DME115.2010W

 
NDB name  Hdg/Dist  Freq  Var  ID
HADIN216/13.924810WIL .. .-..
RAINBOW276/28.436311WRNB .-. -. -...

Airport Services

Runway Information

Runway 2/20

Dimensions: 3300 x 100 ft. / 1006 x 30 m
Surface: turf
RUNWAY 2  RUNWAY 20
Traffic pattern: leftleft
Obstructions: 50 ft. trees50 ft. trees

Airport Ownership and Management from official FAA records

Ownership: Privately-owned
Owner: DAVID & NANCY CANNAVO
1270 CALDWELL CORNER RD
TOWNSEND, DE 19734
Phone 302-378-1396
Manager: DAVID & NANCY CANNAVO
1270 CALDWELL CORNER RD
TOWNSEND, DE 19734
Phone 302-378-1396

Airport Operational Statistics

Aircraft based on the field: 9
Single engine airplanes: 7
Multi engine airplanes: 1
Jet airplanes: 1
    

Additional Remarks

FOR CD CTC PHILADELPHIA APCH AT 800-354-9884.

Instrument Procedures

There are no published instrument procedures at DE20.

Some nearby airports with instrument procedures:

KEVY - Summit Airport (9 nm N)
33N - Delaware Airpark (11 nm SE)
58M - Claremont Airport (13 nm NW)
KILG - New Castle Airport (19 nm N)
KDOV - Dover Air Force Base (20 nm SE)
 
Loc | Ops | Rwys | IFR | FBO | Links
Com | Nav | Svcs | Stats | Notes
Area around DE20 (Spirit Airpark)
 
Road maps at: MapQuest Bing Google
 
Aerial photo
No photo
 
Sectional chart

 
Airport distance calculator
Flying to Spirit Airpark? Find the distance to fly.

From to DE20

Sunrise and sunset
Times for 16-May-2021
 Local
(UTC-4)
 Zulu
(UTC)
Morning civil twilight05:1909:19
Sunrise05:4909:49
Sunset20:0900:09
Evening civil twilight20:4000:40

Current date and time
Zulu (UTC)  16-May-2021 11:44:53
Local (UTC-4)  16-May-2021 07:44:53
 
METAR
K33N 
11nm SE 
161135Z AUTO 000KT 10SM CLR 12/08 A3028 RMK A01
KAPG 
16nm W 
161058Z AUTO 00000KT 10SM FEW170 09/08 A3027 RMK AO2 SLP254 T00890082 $
KILG 
19nm N 
161051Z 27003KT 10SM CLR 11/06 A3027 RMK AO2 SLP251 T01060056 $
KDOV 
20nm SE 
161056Z AUTO 20003KT 10SM CLR 10/05 A3027 RMK AO2 SLP254 T01000054 $
TAF
KILG 
19nm N 
160520Z 1606/1706 VRB03KT P6SM BKN150 FM161400 20007KT P6SM BKN150 FM170400 VRB04KT P6SM BKN150
KDOV 
20nm SE 
160800Z 1608/1714 21006KT 9999 SKC QNH3024INS BECMG 1615/1616 18006KT 9999 BKN120 QNH3024INS BECMG 1709/1710 30006KT 9999 SKC QNH3026INS TX20/1620Z TN08/1610Z
NOTAMs
Click for the latest NOTAMs
NOTAMs are issued by the DoD/FAA and will open in a separate window not controlled by AirNav.

 

 
 

Would you like to see your business listed on this page?

 If your business provides an interesting product or service to pilots, flight crews, aircraft, or users of the Spirit Airpark, you should consider listing it here.  To start the listing process, click on the button below
 
Add a business
 

Other Pages about Spirit Airpark

Update a link
 
Copyright © AirNav, LLC. All rights reserved. Privacy Policy  Contact